createdAt,value
2018-10-01T00:00:08.921Z,83.89
2018-10-01T00:01:18.964Z,83.94
2018-10-01T00:02:29.010Z,84.74
2018-10-01T00:03:38.772Z,85.84
2018-10-01T00:04:48.813Z,85.93
2018-10-01T00:05:58.849Z,85.46
2018-10-01T00:07:08.613Z,86.41
2018-10-01T00:08:18.377Z,85.55
2018-10-01T00:09:28.142Z,85.84
2018-10-01T00:10:38.178Z,85.84
2018-10-01T00:11:48.205Z,85.36
2018-10-01T00:12:57.773Z,85.36
2018-10-01T00:14:07.267Z,85.08
2018-10-01T00:15:17.302Z,85.46
2018-10-01T00:16:26.799Z,85.74
2018-10-01T00:17:36.829Z,85.36
2018-10-01T00:18:46.595Z,85.36
2018-10-01T00:19:56.625Z,85.74
2018-10-01T00:21:06.122Z,85.55
2018-10-01T00:22:16.162Z,86.22
2018-10-01T00:23:25.922Z,87.07
2018-10-01T00:24:35.962Z,86.79
2018-10-01T00:25:45.997Z,86.6
2018-10-01T00:26:55.755Z,86.22
2018-10-01T00:28:05.246Z,85.84
2018-10-01T00:29:15.008Z,86.41
2018-10-01T00:30:24.503Z,86.79
2018-10-01T00:31:34.528Z,86.03
2018-10-01T00:32:44.561Z,86.41
2018-10-01T00:33:54.593Z,86.41
2018-10-01T00:35:04.355Z,86.12
2018-10-01T00:36:14.383Z,85.74
2018-10-01T00:37:23.876Z,85.84
2018-10-01T00:38:34.091Z,86.12
2018-10-01T00:39:43.925Z,86.6
2018-10-01T00:40:53.683Z,86.22
2018-10-01T00:42:03.726Z,86.6
2018-10-01T00:43:13.500Z,86.12
2018-10-01T00:44:23.266Z,86.12
2018-10-01T00:45:33.033Z,86.22
2018-10-01T00:46:42.790Z,85.55
2018-10-01T00:47:52.548Z,85.84
2018-10-01T00:49:02.316Z,86.41
2018-10-01T00:50:12.075Z,85.93
2018-10-01T00:51:21.832Z,86.5
2018-10-01T00:52:31.597Z,86.41
2018-10-01T00:53:41.415Z,86.6
2018-10-01T00:54:51.205Z,86.03
2018-10-01T00:56:01.234Z,86.31
2018-10-01T00:57:10.728Z,86.31
2018-10-01T00:58:20.758Z,86.79
2018-10-01T00:59:30.312Z,86.5
2018-10-01T01:00:40.342Z,86.98
2018-10-01T01:01:50.101Z,86.79
2018-10-01T01:02:59.864Z,86.41
2018-10-01T01:04:09.370Z,87.45
2018-10-01T01:05:19.447Z,87.83
2018-10-01T01:06:29.207Z,87.73
2018-10-01T01:07:38.967Z,88.11
2018-10-01T01:08:48.997Z,88.02
2018-10-01T01:09:59.027Z,88.11
2018-10-01T01:11:08.889Z,88.11
2018-10-01T01:12:18.913Z,87.64
2018-10-01T01:13:28.705Z,87.54
2018-10-01T01:14:38.732Z,87.64
2018-10-01T01:15:48.763Z,87.35
2018-10-01T01:16:58.534Z,87.73
2018-10-01T01:18:08.297Z,87.54
2018-10-01T01:19:17.792Z,87.92
2018-10-01T01:20:27.554Z,87.73
2018-10-01T01:21:37.052Z,87.83
2018-10-01T01:22:47.139Z,88.21
2018-10-01T01:23:57.183Z,88.21
2018-10-01T01:25:07.211Z,88.21
2018-10-01T01:26:17.016Z,87.73
2018-10-01T01:27:26.780Z,87.35
2018-10-01T01:28:36.858Z,87.73
2018-10-01T01:29:46.893Z,87.54
2018-10-01T01:30:56.648Z,87.54
2018-10-01T01:32:06.683Z,87.64
2018-10-01T01:33:16.443Z,87.83
2018-10-01T01:34:26.478Z,87.54
2018-10-01T01:35:36.525Z,87.92
2018-10-01T01:36:46.019Z,87.83
2018-10-01T01:37:56.048Z,87.92
2018-10-01T01:39:05.545Z,87.16
2018-10-01T01:40:14.606Z,88.02
2018-10-01T01:41:24.096Z,87.16
2018-10-01T01:42:34.119Z,87.16
2018-10-01T01:43:43.883Z,87.35
2018-10-01T01:44:53.940Z,87.64
2018-10-01T01:46:03.755Z,87.83
2018-10-01T01:47:13.778Z,88.02
2018-10-01T01:48:23.538Z,88.21
2018-10-01T01:49:33.306Z,88.21
2018-10-01T01:50:43.333Z,88.02
2018-10-01T01:51:53.411Z,88.78
2018-10-01T01:53:03.487Z,88.49
2018-10-01T01:54:13.514Z,88.4
2018-10-01T01:55:22.741Z,88.96
2018-10-01T01:56:32.508Z,89.44
2018-10-01T01:57:42.316Z,89.01
2018-10-01T01:58:52.341Z,88.82
2018-10-01T02:00:02.110Z,88.64
2018-10-01T02:01:11.872Z,88.92
2018-10-01T02:02:21.903Z,88.35
2018-10-01T02:03:31.716Z,88.35
2018-10-01T02:04:41.472Z,88.26
2018-10-01T02:05:51.010Z,89.11
2018-10-01T02:07:01.054Z,88.92
2018-10-01T02:08:10.818Z,89.11
2018-10-01T02:09:20.903Z,88.82
2018-10-01T02:10:30.669Z,88.82
2018-10-01T02:11:40.700Z,89.49
2018-10-01T02:12:50.730Z,89.11
2018-10-01T02:14:00.754Z,89.11
2018-10-01T02:15:10.514Z,89.11
2018-10-01T02:16:20.280Z,89.2
2018-10-01T02:17:30.038Z,89.11
2018-10-01T02:18:40.074Z,89.58
2018-10-01T02:19:50.122Z,90.06
2018-10-01T02:20:59.664Z,89.58
2018-10-01T02:22:09.701Z,89.11
2018-10-01T02:23:19.725Z,89.49
2018-10-01T02:24:29.496Z,89.49
2018-10-01T02:25:39.289Z,89.39
2018-10-01T02:26:48.827Z,90.25
2018-10-01T02:27:58.852Z,90.06
2018-10-01T02:29:08.883Z,89.96
2018-10-01T02:30:18.919Z,89.49
2018-10-01T02:31:28.960Z,89.68
2018-10-01T02:32:39.001Z,89.49
2018-10-01T02:33:49.041Z,89.3
2018-10-01T02:34:58.836Z,89.11
2018-10-01T02:36:08.604Z,89.11
2018-10-01T02:37:18.652Z,88.73
2018-10-01T02:38:28.734Z,88.35
2018-10-01T02:39:38.498Z,88.35
2018-10-01T02:40:48.530Z,88.82
2018-10-01T02:41:58.294Z,89.49
2018-10-01T02:43:08.081Z,89.01
2018-10-01T02:44:18.188Z,89.77
2018-10-01T02:45:27.679Z,90.67
2018-10-01T02:46:37.715Z,90.53
2018-10-01T02:47:47.664Z,91.29
2018-10-01T02:48:57.909Z,91.24
2018-10-01T02:50:07.422Z,91.43
2018-10-01T02:51:16.929Z,91.43
2018-10-01T02:52:26.709Z,91.53
2018-10-01T02:53:36.476Z,91.29
2018-10-01T02:54:46.258Z,91.29
2018-10-01T02:55:56.077Z,91.29
2018-10-01T02:57:05.837Z,91.48
2018-10-01T02:58:15.605Z,91.67
2018-10-01T02:59:25.625Z,91.38
2018-10-01T03:00:35.389Z,91.48
2018-10-01T03:01:45.216Z,91.19
2018-10-01T03:02:54.986Z,91.19
2018-10-01T03:04:04.212Z,91.57
2018-10-01T03:05:13.972Z,91.57
2018-10-01T03:06:23.464Z,91.29
2018-10-01T03:07:33.553Z,91.57
2018-10-01T03:08:43.326Z,91.57
2018-10-01T03:09:53.383Z,91.29
2018-10-01T03:11:03.155Z,91
2018-10-01T03:12:12.669Z,91
2018-10-01T03:13:22.901Z,91.19
2018-10-01T03:14:32.935Z,92.24
2018-10-01T03:15:42.981Z,91.95
2018-10-01T03:16:53.029Z,91.57
2018-10-01T03:18:02.802Z,91.19
2018-10-01T03:19:14.894Z,91.1
2018-10-01T03:20:24.938Z,91.1
2018-10-01T03:21:34.969Z,91.1
2018-10-01T03:22:44.740Z,91.33
2018-10-01T03:23:54.773Z,92.05
2018-10-01T03:25:04.820Z,92.57
2018-10-01T03:26:14.849Z,92.85
2018-10-01T03:27:24.361Z,92.57
2018-10-01T03:28:34.393Z,93.32
2018-10-01T03:29:44.436Z,92.85
2018-10-01T03:30:54.197Z,93.51
2018-10-01T03:32:03.706Z,93.51
2018-10-01T03:33:13.744Z,93.13
2018-10-01T03:34:23.769Z,93.61
2018-10-01T03:35:33.802Z,94.46
2018-10-01T03:36:43.586Z,94.56
2018-10-01T03:37:53.623Z,94.37
2018-10-01T03:39:03.394Z,94.27
2018-10-01T03:40:13.097Z,95.6
2018-10-01T03:41:23.216Z,94.93
2018-10-01T03:42:33.039Z,95.41
2018-10-01T03:43:43.077Z,95.12
2018-10-01T03:44:53.119Z,95.31
2018-10-01T03:46:03.177Z,94.93
2018-10-01T03:47:13.205Z,95.12
2018-10-01T03:48:23.235Z,94.08
2018-10-01T03:49:33.266Z,93.99
2018-10-01T03:50:42.760Z,93.32
2018-10-01T03:51:52.536Z,93.42
2018-10-01T03:53:02.581Z,92.76
2018-10-01T03:54:12.397Z,92.28
2018-10-01T03:55:22.440Z,91.81
2018-10-01T03:56:32.479Z,91.9
2018-10-01T03:57:42.556Z,91.9
2018-10-01T03:58:52.592Z,91.81
2018-10-01T04:00:02.408Z,93.37
2018-10-01T04:01:11.903Z,92.9
2018-10-01T04:02:21.943Z,92.8
2018-10-01T04:03:32.016Z,92.38
2018-10-01T04:04:42.051Z,91.33
2018-10-01T04:05:52.097Z,91.62
2018-10-01T04:07:02.134Z,91.62
2018-10-01T04:08:11.627Z,91.52
2018-10-01T04:09:21.670Z,91.43
2018-10-01T04:10:31.709Z,91.57
2018-10-01T04:11:41.794Z,91.57
2018-10-01T04:12:51.569Z,90.58
2018-10-01T04:14:01.616Z,90.72
2018-10-01T04:15:11.647Z,90.15
2018-10-01T04:16:21.417Z,90.81
2018-10-01T04:17:31.185Z,90.91
2018-10-01T04:18:41.214Z,90.25
2018-10-01T04:19:51.247Z,90.91
2018-10-01T04:21:01.271Z,90.91
2018-10-01T04:22:11.031Z,91.48
2018-10-01T04:23:20.522Z,91.57
2018-10-01T04:24:30.603Z,92.14
2018-10-01T04:25:40.640Z,92.43
2018-10-01T04:26:50.401Z,93.08
2018-10-01T04:28:00.434Z,92.61
2018-10-01T04:29:10.618Z,92.71
2018-10-01T04:30:20.655Z,92.33
2018-10-01T04:31:30.424Z,92.33
2018-10-01T04:32:40.466Z,91.86
2018-10-01T04:33:50.498Z,92.43
2018-10-01T04:35:00.577Z,92.33
2018-10-01T04:36:10.623Z,92.94
2018-10-01T04:37:20.645Z,92.52
2018-10-01T04:38:30.669Z,92.61
2018-10-01T04:39:40.693Z,92.8
2018-10-01T04:40:50.073Z,93.51
2018-10-01T04:41:59.955Z,93.23
2018-10-01T04:43:09.716Z,93.42
2018-10-01T04:44:19.471Z,94.18
2018-10-01T04:45:28.961Z,93.99
2018-10-01T04:46:39.086Z,94.56
2018-10-01T04:47:49.278Z,94.37
2018-10-01T04:48:59.306Z,94.37
2018-10-01T04:50:09.081Z,94.18
2018-10-01T04:51:19.111Z,94.37
2018-10-01T04:52:31.138Z,94.93
2018-10-01T04:53:40.897Z,95.12
2018-10-01T04:54:50.925Z,94.84
2018-10-01T04:56:00.414Z,94.27
2018-10-01T04:57:10.457Z,94.56
2018-10-01T04:58:20.302Z,94.84
2018-10-01T04:59:31.423Z,95.21
2018-10-01T05:00:40.642Z,94.74
2018-10-01T05:01:50.675Z,94.23
2018-10-01T05:03:00.443Z,93.89
2018-10-01T05:04:10.520Z,94.13
2018-10-01T05:05:20.282Z,94.27
2018-10-01T05:06:30.041Z,94.27
2018-10-01T05:07:40.078Z,94.37
2018-10-01T05:08:49.041Z,94.56
2018-10-01T05:09:58.595Z,94.56
2018-10-01T05:11:08.620Z,95.59
2018-10-01T05:12:18.645Z,94.89
2018-10-01T05:13:28.689Z,94.79
2018-10-01T05:14:38.203Z,94.42
2018-10-01T05:15:49.536Z,94.7
2018-10-01T05:16:59.296Z,94.13
2018-10-01T05:18:09.104Z,94.13
2018-10-01T05:19:18.870Z,94.23
2018-10-01T05:20:28.902Z,94.51
2018-10-01T05:21:39.507Z,94.42
2018-10-01T05:22:49.263Z,94.51
2018-10-01T05:23:58.753Z,94.18
2018-10-01T05:25:08.514Z,93.99
2018-10-01T05:26:18.276Z,94.37
2018-10-01T05:27:28.500Z,94.74
2018-10-01T05:28:38.267Z,94.18
2018-10-01T05:29:48.293Z,95.79
2018-10-01T05:30:58.326Z,95.6
2018-10-01T05:32:08.094Z,95.98
2018-10-01T05:33:17.905Z,95.5
2018-10-01T05:34:27.942Z,96.07
2018-10-01T05:35:37.969Z,96.36
2018-10-01T05:36:47.723Z,96.36
2018-10-01T05:37:57.464Z,97.11
2018-10-01T05:39:07.572Z,97.3
2018-10-01T05:40:17.079Z,97.59
2018-10-01T05:41:27.102Z,97.97
2018-10-01T05:42:36.860Z,98.16
2018-10-01T05:43:46.890Z,98.25
2018-10-01T05:44:56.694Z,97.78
2018-10-01T05:46:06.459Z,97.97
2018-10-01T05:47:16.220Z,98.16
2018-10-01T05:48:26.255Z,98.82
2018-10-01T05:49:36.281Z,98.44
2018-10-01T05:50:46.356Z,99.39
2018-10-01T05:51:56.111Z,99.1
2018-10-01T05:53:05.331Z,99.01
2018-10-01T05:54:15.100Z,98.91
2018-10-01T05:55:25.125Z,99.39
2018-10-01T05:56:34.408Z,99.01
2018-10-01T05:57:44.635Z,98.91
2018-10-01T05:58:54.806Z,99.1
2018-10-01T06:00:04.708Z,98.72
2018-10-01T06:01:14.790Z,97.78
2018-10-01T06:02:24.633Z,98.25
2018-10-01T06:03:34.804Z,98.16
2018-10-01T06:04:44.998Z,98.25
2018-10-01T06:05:55.172Z,98.63
2018-10-01T06:07:04.970Z,98.25
2018-10-01T06:08:15.355Z,98.16
2018-10-01T06:09:25.227Z,98.54
2018-10-01T06:10:35.394Z,98.54
2018-10-01T06:11:45.840Z,98.54
2018-10-01T06:12:56.305Z,98.25
2018-10-01T06:14:06.286Z,98.11
2018-10-01T06:15:16.539Z,98.72
2018-10-01T06:16:26.635Z,98.58
2018-10-01T06:17:36.738Z,97.68
2018-10-01T06:18:47.049Z,97.73
2018-10-01T06:19:56.633Z,98.3
2018-10-01T06:21:06.823Z,97.83
2018-10-01T06:22:16.794Z,98.39
2018-10-01T06:23:26.975Z,98.02
2018-10-01T06:24:36.729Z,98.11
2018-10-01T06:25:46.817Z,98.11
2018-10-01T06:26:56.572Z,98.11
2018-10-01T06:28:06.328Z,98.39
2018-10-01T06:29:16.352Z,98.21
2018-10-01T06:30:26.379Z,97.54
2018-10-01T06:31:36.548Z,96.97
2018-10-01T06:32:46.303Z,97.07
2018-10-01T06:33:55.813Z,97.54
2018-10-01T06:35:05.839Z,96.69
2018-10-01T06:36:15.416Z,97.45
2018-10-01T06:37:25.658Z,97.07
2018-10-01T06:38:35.686Z,97.26
2018-10-01T06:39:45.449Z,96.69
2018-10-01T06:40:55.532Z,96.22
2018-10-01T06:42:05.455Z,96.59
2018-10-01T06:43:15.409Z,96.03
2018-10-01T06:44:25.462Z,96.03
2018-10-01T06:45:35.220Z,95.55
2018-10-01T06:46:45.343Z,95.6
2018-10-01T06:47:55.648Z,95.79
2018-10-01T06:49:05.954Z,95.31
2018-10-01T06:50:15.736Z,95.69
2018-10-01T06:51:25.240Z,95.79
2018-10-01T06:52:35.007Z,95.69
2018-10-01T06:53:44.773Z,95.22
2018-10-01T06:54:54.348Z,95.31
2018-10-01T06:56:03.850Z,95.12
2018-10-01T06:57:13.873Z,94.56
2018-10-01T06:58:23.631Z,94.56
2018-10-01T06:59:33.660Z,95.22
2018-10-01T07:00:43.746Z,94.56
2018-10-01T07:01:53.769Z,94.46
2018-10-01T07:03:03.532Z,94.18
2018-10-01T07:04:13.554Z,94.18
2018-10-01T07:05:23.653Z,94.74
2018-10-01T07:06:34.103Z,94.08
2018-10-01T07:07:43.373Z,93.61
2018-10-01T07:08:53.473Z,93.32
2018-10-01T07:10:02.701Z,93.04
2018-10-01T07:11:12.638Z,92.66
2018-10-01T07:12:22.782Z,91.61
2018-10-01T07:13:32.271Z,91.61
2018-10-01T07:14:41.761Z,91.61
2018-10-01T07:15:51.257Z,91.42
2018-10-01T07:17:01.147Z,91.05
2018-10-01T07:18:11.745Z,91.24
2018-10-01T07:19:21.548Z,91.33
2018-10-01T07:20:31.320Z,91.42
2018-10-01T07:21:40.543Z,91.94
2018-10-01T07:22:50.136Z,92.71
2018-10-01T07:24:00.631Z,92.85
2018-10-01T07:25:10.119Z,93.13
2018-10-01T07:26:19.880Z,93.08
2018-10-01T07:27:29.910Z,93.04
2018-10-01T07:28:39.935Z,92.52
2018-10-01T07:29:50.009Z,92.09
2018-10-01T07:30:59.776Z,92.61
2018-10-01T07:32:08.994Z,92.42
2018-10-01T07:33:18.754Z,93.08
2018-10-01T07:34:28.784Z,92.04
2018-10-01T07:35:38.860Z,91.75
2018-10-01T07:36:48.886Z,91.75
2018-10-01T07:37:58.645Z,91.56
2018-10-01T07:39:08.929Z,92.42
2018-10-01T07:40:18.698Z,91.28
2018-10-01T07:41:27.705Z,91.09
2018-10-01T07:42:37.472Z,91.56
2018-10-01T07:43:47.499Z,90.9
2018-10-01T07:44:57.379Z,91.19
2018-10-01T07:46:07.388Z,90.9
2018-10-01T07:47:17.294Z,90.71
2018-10-01T07:48:26.519Z,90.43
2018-10-01T07:49:36.076Z,90.52
2018-10-01T07:50:46.040Z,89.29
2018-10-01T07:51:56.664Z,90.05
2018-10-01T07:53:05.420Z,90.09
2018-10-01T07:54:14.922Z,90.28
2018-10-01T07:55:24.173Z,90.47
2018-10-01T07:56:33.407Z,90.28
2018-10-01T07:57:43.445Z,89.05
2018-10-01T07:58:53.526Z,89.33
2018-10-01T08:00:04.140Z,88.76
2018-10-01T08:01:14.544Z,88.39
2018-10-01T08:02:24.637Z,89.05
2018-10-01T08:03:34.689Z,88.29
2018-10-01T08:04:44.773Z,88.2
2018-10-01T08:05:54.543Z,87.62
2018-10-01T08:07:04.038Z,87.43
2018-10-01T08:08:13.972Z,87.91
2018-10-01T08:09:24.209Z,87.53
2018-10-01T08:10:34.903Z,86.96
2018-10-01T08:11:44.693Z,87.24
2018-10-01T08:12:54.185Z,86.96
2018-10-01T08:14:04.291Z,87.15
2018-10-01T08:15:14.754Z,87.15
2018-10-01T08:16:24.566Z,88.1
2018-10-01T08:17:34.323Z,88.48
2018-10-01T08:18:44.088Z,88.1
2018-10-01T08:19:54.116Z,86.77
2018-10-01T08:21:04.211Z,86.72
2018-10-01T08:22:14.297Z,86.34
2018-10-01T08:23:24.075Z,86.72
2018-10-01T08:24:33.600Z,86.43
2018-10-01T08:25:43.676Z,86.49
2018-10-01T08:26:53.761Z,85.58
2018-10-01T08:28:03.843Z,85.96
2018-10-01T08:29:13.438Z,85.2
2018-10-01T08:30:23.965Z,85.77
2018-10-01T08:31:33.732Z,86.63
2018-10-01T08:32:43.765Z,86.34
2018-10-01T08:33:53.632Z,86.53
2018-10-01T08:35:03.740Z,85.96
2018-10-01T08:36:13.704Z,84.91
2018-10-01T08:37:23.728Z,85.2
2018-10-01T08:38:33.648Z,85.2
2018-10-01T08:39:43.974Z,85.01
2018-10-01T08:40:54.003Z,85.2
2018-10-01T08:42:03.844Z,85.39
2018-10-01T08:43:13.607Z,84.91
2018-10-01T08:44:23.438Z,84.44
2018-10-01T08:45:33.876Z,85.01
2018-10-01T08:46:43.912Z,84.25
2018-10-01T08:47:53.936Z,83.97
2018-10-01T08:49:03.699Z,83.34
2018-10-01T08:50:13.688Z,83.34
2018-10-01T08:51:23.796Z,83.25
2018-10-01T08:52:33.579Z,84.2
2018-10-01T08:53:43.617Z,83.34
2018-10-01T08:54:53.382Z,82.2
2018-10-01T08:56:02.970Z,81.82
2018-10-01T08:57:13.072Z,80.87
2018-10-01T08:58:22.832Z,79.92
2018-10-01T08:59:32.983Z,79.44
2018-10-01T09:00:43.418Z,80.96
2018-10-01T09:01:53.444Z,80.68
2018-10-01T09:03:03.082Z,80.02
2018-10-01T09:04:12.841Z,79.63
2018-10-01T09:05:22.453Z,80.02
2018-10-01T09:06:32.494Z,80.63
2018-10-01T09:07:42.343Z,79.11
2018-10-01T09:08:52.162Z,79.77
2018-10-01T09:10:01.659Z,79.68
2018-10-01T09:11:10.971Z,79.68
2018-10-01T09:12:21.405Z,80.34
2018-10-01T09:13:30.898Z,79.96
2018-10-01T09:14:40.660Z,78.72
2018-10-01T09:15:50.631Z,78.25
2018-10-01T09:17:00.213Z,78.16
2018-10-01T09:18:10.093Z,78.16
2018-10-01T09:19:20.126Z,77.01
2018-10-01T09:20:29.998Z,77.58
2018-10-01T09:21:40.520Z,78.06
2018-10-01T09:22:50.574Z,77.49
2018-10-01T09:24:00.368Z,78.53
2018-10-01T09:25:10.403Z,78.16
2018-10-01T09:26:20.612Z,77.72
2018-10-01T09:27:30.496Z,76.1
2018-10-01T09:28:40.531Z,76.2
2018-10-01T09:29:50.569Z,75.53
2018-10-01T09:31:00.524Z,76.2
2018-10-01T09:32:09.965Z,75.81
2018-10-01T09:33:20.474Z,76.1
2018-10-01T09:34:30.242Z,75.91
2018-10-01T09:35:40.291Z,75.53
2018-10-01T09:36:50.382Z,74.96
2018-10-01T09:38:00.224Z,75.53
2018-10-01T09:39:10.590Z,75.43
2018-10-01T09:40:20.390Z,75.91
2018-10-01T09:41:30.667Z,75.62
2018-10-01T09:42:40.428Z,75.24
2018-10-01T09:43:50.459Z,75.43
2018-10-01T09:45:00.008Z,75.43
2018-10-01T09:46:09.645Z,75.47
2018-10-01T09:47:19.647Z,76.2
2018-10-01T09:48:29.415Z,75.91
2018-10-01T09:49:38.905Z,75.05
2018-10-01T09:50:48.667Z,75.85
2018-10-01T09:51:58.795Z,74.87
2018-10-01T09:53:08.159Z,75.34
2018-10-01T09:54:18.192Z,74.71
2018-10-01T09:55:28.009Z,73.76
2018-10-01T09:56:37.311Z,73.95
2018-10-01T09:57:47.470Z,74.43
2018-10-01T09:58:57.537Z,73.28
2018-10-01T10:00:07.309Z,73.19
2018-10-01T10:01:17.344Z,72.14
2018-10-01T10:02:27.140Z,72.81
2018-10-01T10:03:37.589Z,72.42
2018-10-01T10:04:47.829Z,72.14
2018-10-01T10:05:58.383Z,70.9
2018-10-01T10:07:07.882Z,72.81
2018-10-01T10:08:18.268Z,72.71
2018-10-01T10:09:27.790Z,72.62
2018-10-01T10:10:37.945Z,71.76
2018-10-01T10:11:47.712Z,71.76
2018-10-01T10:12:57.528Z,71.76
2018-10-01T10:14:07.710Z,70.9
2018-10-01T10:15:17.849Z,70.33
2018-10-01T10:16:28.016Z,70.62
2018-10-01T10:17:36.957Z,69.04
2018-10-01T10:18:46.724Z,68.46
2018-10-01T10:19:56.847Z,69.6
2018-10-01T10:21:07.175Z,70.27
2018-10-01T10:22:17.374Z,69.7
2018-10-01T10:23:27.319Z,69.89
2018-10-01T10:24:37.345Z,68.46
2018-10-01T10:25:47.374Z,67.89
2018-10-01T10:26:57.453Z,67.89
2018-10-01T10:28:07.784Z,69.85
2018-10-01T10:29:17.937Z,69.32
2018-10-01T10:30:27.165Z,68.15
2018-10-01T10:31:37.200Z,68.56
2018-10-01T10:32:46.959Z,67.89
2018-10-01T10:33:56.781Z,68.27
2018-10-01T10:35:06.688Z,69.32
2018-10-01T10:36:16.507Z,68.18
2018-10-01T10:37:26.010Z,68.46
2018-10-01T10:38:36.229Z,69.6
2018-10-01T10:39:46.134Z,69.04
2018-10-01T10:40:56.060Z,68.65
2018-10-01T10:42:05.819Z,67.22
2018-10-01T10:43:15.051Z,68.37
2018-10-01T10:44:24.894Z,67.8
2018-10-01T10:45:35.183Z,68.21
2018-10-01T10:46:44.947Z,68.5
2018-10-01T10:47:54.442Z,68.4
2018-10-01T10:49:04.267Z,66.21
2018-10-01T10:50:14.219Z,66.78
2018-10-01T10:51:24.284Z,67.35
2018-10-01T10:52:33.782Z,66.24
2018-10-01T10:53:43.818Z,66.44
2018-10-01T10:54:53.854Z,64.81
2018-10-01T10:56:04.019Z,65.48
2018-10-01T10:57:14.467Z,65.2
2018-10-01T10:58:24.501Z,64.91
2018-10-01T10:59:33.997Z,64.43
2018-10-01T11:00:44.037Z,65.96
2018-10-01T11:01:53.802Z,63.99
2018-10-01T11:03:03.702Z,64.24
2018-10-01T11:04:13.472Z,64.81
2018-10-01T11:05:23.564Z,65.67
2018-10-01T11:06:32.788Z,66.05
2018-10-01T11:07:42.563Z,64.53
2018-10-01T11:08:52.597Z,64.91
2018-10-01T11:10:02.630Z,65.16
2018-10-01T11:11:12.398Z,65.45
2018-10-01T11:12:22.430Z,64.87
2018-10-01T11:13:32.462Z,66.18
2018-10-01T11:14:42.763Z,65.42
2018-10-01T11:15:53.640Z,66.18
2018-10-01T11:17:03.421Z,66.56
2018-10-01T11:18:13.505Z,66.94
2018-10-01T11:19:23.704Z,67.38
2018-10-01T11:20:33.861Z,68.05
2018-10-01T11:21:43.625Z,66.56
2018-10-01T11:22:54.247Z,67.95
2018-10-01T11:24:04.116Z,67.95
2018-10-01T11:25:13.739Z,67.95
2018-10-01T11:26:24.100Z,68.05
2018-10-01T11:27:34.312Z,68.62
2018-10-01T11:28:44.921Z,68.33
2018-10-01T11:29:54.885Z,69.19
2018-10-01T11:31:04.660Z,69
2018-10-01T11:32:14.697Z,69.76
2018-10-01T11:33:24.318Z,69.76
2018-10-01T11:34:33.720Z,69.19
2018-10-01T11:35:43.845Z,69.54
2018-10-01T11:36:53.893Z,69.25
2018-10-01T11:38:03.395Z,68.43
2018-10-01T11:39:13.020Z,68.33
2018-10-01T11:40:24.097Z,69.76
2018-10-01T11:41:33.621Z,69.95
2018-10-01T11:42:43.657Z,70.62
2018-10-01T11:43:53.689Z,69.67
2018-10-01T11:45:03.831Z,69.38
2018-10-01T11:46:14.167Z,67.95
2018-10-01T11:47:23.933Z,68.81
2018-10-01T11:48:33.703Z,68.9
2018-10-01T11:49:43.734Z,68.43
2018-10-01T11:50:53.803Z,69.29
2018-10-01T11:52:03.681Z,69.1
2018-10-01T11:53:13.714Z,68.81
2018-10-01T11:54:23.550Z,68.27
2018-10-01T11:55:32.615Z,68.75
2018-10-01T11:56:42.698Z,68.18
2018-10-01T11:57:52.463Z,68.84
2018-10-01T11:59:02.229Z,66.78
2018-10-01T12:00:12.267Z,65.26
2018-10-01T12:01:22.311Z,64.5
2018-10-01T12:02:31.803Z,64.15
2018-10-01T12:03:41.963Z,64.21
2018-10-01T12:04:52.023Z,64.34
2018-10-01T12:06:02.152Z,63.48
2018-10-01T12:07:11.645Z,62.05
2018-10-01T12:08:21.675Z,62.72
2018-10-01T12:09:31.941Z,61.67
2018-10-01T12:10:42.121Z,61.48
2018-10-01T12:11:52.156Z,61.7
2018-10-01T12:13:02.185Z,61.13
2018-10-01T12:14:11.964Z,61.32
2018-10-01T12:15:21.546Z,62.18
2018-10-01T12:16:31.693Z,61.32
2018-10-01T12:17:41.457Z,60.08
2018-10-01T12:18:51.227Z,61.32
2018-10-01T12:20:01.335Z,61.8
2018-10-01T12:21:11.048Z,61.8
2018-10-01T12:22:21.694Z,61.13
2018-10-01T12:23:31.458Z,60.21
2018-10-01T12:24:41.663Z,59.22
2018-10-01T12:25:51.715Z,56.46
2018-10-01T12:27:01.943Z,56.65
2018-10-01T12:28:12.313Z,55.41
2018-10-01T12:29:22.458Z,53.91
2018-10-01T12:30:31.961Z,55.41
2018-10-01T12:31:42.049Z,55.34
2018-10-01T12:32:52.079Z,56.29
2018-10-01T12:34:02.004Z,55.94
2018-10-01T12:35:11.702Z,56.32
2018-10-01T12:36:22.109Z,53.58
2018-10-01T12:37:31.885Z,55.08
2018-10-01T12:38:41.718Z,54.53
2018-10-01T12:39:51.875Z,55.01
2018-10-01T12:41:01.964Z,55.68
2018-10-01T12:42:11.998Z,55.58
2018-10-01T12:43:21.766Z,54.94
2018-10-01T12:44:31.824Z,55.42
2018-10-01T12:45:42.089Z,54.37
2018-10-01T12:46:52.332Z,53.92
2018-10-01T12:48:01.828Z,54.02
2018-10-01T12:49:11.602Z,53.63
2018-10-01T12:50:21.657Z,53.44
2018-10-01T12:51:32.055Z,52.87
2018-10-01T12:52:42.277Z,52.29
2018-10-01T12:53:52.315Z,52.48
2018-10-01T12:55:01.826Z,52.29
2018-10-01T12:56:11.942Z,52.1
2018-10-01T12:57:22.225Z,52.1
2018-10-01T12:58:32.100Z,52.48
2018-10-01T12:59:42.396Z,51.72
2018-10-01T13:00:52.306Z,52.1
2018-10-01T13:02:02.096Z,52.39
2018-10-01T13:03:11.887Z,52.48
2018-10-01T13:04:21.698Z,52.39
2018-10-01T13:05:31.797Z,52.48
2018-10-01T13:06:42.053Z,52.67
2018-10-01T13:07:52.643Z,52.48
2018-10-01T13:09:02.428Z,52.77
2018-10-01T13:10:12.211Z,52.39
2018-10-01T13:11:22.010Z,52.01
2018-10-01T13:12:31.752Z,52.1
2018-10-01T13:13:41.895Z,52.48
2018-10-01T13:14:52.012Z,52.39
2018-10-01T13:16:01.535Z,51.05
2018-10-01T13:17:11.595Z,52.39
2018-10-01T13:18:21.925Z,52.77
2018-10-01T13:19:32.256Z,50.76
2018-10-01T13:20:42.054Z,51.41
2018-10-01T13:21:51.831Z,51.41
2018-10-01T13:23:01.624Z,53.03
2018-10-01T13:24:11.949Z,53.44
2018-10-01T13:25:27.187Z,52.96
2018-10-01T13:26:36.964Z,52.87
2018-10-01T13:27:47.034Z,51.62
2018-10-01T13:28:57.091Z,51.91
2018-10-01T13:30:07.391Z,50.67
2018-10-01T13:31:17.558Z,50.67
2018-10-01T13:32:27.621Z,52.1
2018-10-01T13:33:37.689Z,52.01
2018-10-01T13:34:47.202Z,52.29
2018-10-01T13:35:56.494Z,51.24
2018-10-01T13:37:06.878Z,49.8
2018-10-01T13:38:16.940Z,50.57
2018-10-01T13:39:26.734Z,50.48
2018-10-01T13:40:36.527Z,51.05
2018-10-01T13:41:47.101Z,50.48
2018-10-01T13:42:57.756Z,50.76
2018-10-01T13:44:07.666Z,50.09
2018-10-01T13:45:17.568Z,50.41
2018-10-01T13:46:27.356Z,51.07
2018-10-01T13:47:37.126Z,50.62
2018-10-01T13:48:47.195Z,48.61
2018-10-01T13:49:57.073Z,48.3
2018-10-01T13:51:06.849Z,49.16
2018-10-01T13:52:17.216Z,48.3
2018-10-01T13:53:27.263Z,49.16
2018-10-01T13:54:37.547Z,49.8
2018-10-01T13:55:46.899Z,50
2018-10-01T13:56:56.421Z,49.43
2018-10-01T13:58:06.637Z,50
2018-10-01T13:59:16.753Z,49.71
2018-10-01T14:00:26.994Z,49.9
2018-10-01T14:01:38.056Z,50.48
2018-10-01T14:02:48.636Z,49.3
2018-10-01T14:03:58.736Z,51.03
2018-10-01T14:05:08.811Z,51.03
2018-10-01T14:06:19.065Z,50.64
2018-10-01T14:07:29.699Z,51.05
2018-10-01T14:08:39.693Z,49.8
2018-10-01T14:09:49.783Z,49.8
2018-10-01T14:10:59.843Z,51.15
2018-10-01T14:12:09.697Z,50.55
2018-10-01T14:13:19.508Z,50.07
2018-10-01T14:14:30.157Z,48.85
2018-10-01T14:15:40.519Z,48.54
2018-10-01T14:16:50.954Z,50.33
2018-10-01T14:18:00.838Z,50.71
2018-10-01T14:19:11.062Z,49.4
2018-10-01T14:20:21.223Z,51.31
2018-10-01T14:21:31.293Z,51.03
2018-10-01T14:22:41.089Z,50.93
2018-10-01T14:23:50.615Z,50.74
2018-10-01T14:25:00.706Z,50.55
2018-10-01T14:26:10.286Z,49.9
2018-10-01T14:27:19.802Z,49.8
2018-10-01T14:28:29.880Z,49.88
2018-10-01T14:29:39.756Z,49.43
2018-10-01T14:30:49.611Z,49.9
2018-10-01T14:31:59.259Z,50
2018-10-01T14:33:09.322Z,49.9
2018-10-01T14:34:18.830Z,49.8
2018-10-01T14:35:28.440Z,49.9
2018-10-01T14:36:37.686Z,50.19
2018-10-01T14:37:47.868Z,50.09
2018-10-01T14:38:57.903Z,50.48
2018-10-01T14:40:07.708Z,49.98
2018-10-01T14:41:17.743Z,50.09
2018-10-01T14:42:27.266Z,50.67
2018-10-01T14:43:36.577Z,50.35
2018-10-01T14:44:46.615Z,50.57
2018-10-01T14:45:56.386Z,50.74
2018-10-01T14:47:06.530Z,50.74
2018-10-01T14:48:16.270Z,50.64
2018-10-01T14:49:26.111Z,50.74
2018-10-01T14:50:35.615Z,51.12
2018-10-01T14:51:45.403Z,51.03
2018-10-01T14:52:55.446Z,50.74
2018-10-01T14:54:04.693Z,51.67
2018-10-01T14:55:14.730Z,52.24
2018-10-01T14:56:24.517Z,52.53
2018-10-01T14:57:34.573Z,52.62
2018-10-01T14:58:44.344Z,52.53
2018-10-01T14:59:53.939Z,52.62
2018-10-01T15:01:04.316Z,53.49
2018-10-01T15:02:14.093Z,53.45
2018-10-01T15:03:24.134Z,53.49